sensor_id;sensor_type;location;lat;lon;timestamp;P1;durP1;ratioP1;P2;durP2;ratioP2
5807;SDS011;2930;42.678;23.312;2022-12-16T00:01:22;68.87;;;34.67;;
5807;SDS011;2930;42.678;23.312;2022-12-16T00:03:50;67.13;;;35.60;;
5807;SDS011;2930;42.678;23.312;2022-12-16T00:06:18;89.70;;;36.60;;
5807;SDS011;2930;42.678;23.312;2022-12-16T00:08:44;64.47;;;34.43;;
5807;SDS011;2930;42.678;23.312;2022-12-16T00:11:10;87.57;;;37.03;;
5807;SDS011;2930;42.678;23.312;2022-12-16T00:13:37;79.27;;;38.00;;
5807;SDS011;2930;42.678;23.312;2022-12-16T00:16:08;86.63;;;38.67;;
5807;SDS011;2930;42.678;23.312;2022-12-16T00:18:36;95.60;;;38.03;;
5807;SDS011;2930;42.678;23.312;2022-12-16T00:21:02;92.93;;;42.07;;
5807;SDS011;2930;42.678;23.312;2022-12-16T00:23:28;88.43;;;42.13;;
5807;SDS011;2930;42.678;23.312;2022-12-16T00:25:54;90.37;;;40.10;;
5807;SDS011;2930;42.678;23.312;2022-12-16T00:28:20;77.43;;;37.30;;
5807;SDS011;2930;42.678;23.312;2022-12-16T00:30:48;76.60;;;39.07;;
5807;SDS011;2930;42.678;23.312;2022-12-16T00:33:15;98.93;;;41.57;;
5807;SDS011;2930;42.678;23.312;2022-12-16T00:35:42;94.47;;;41.70;;
5807;SDS011;2930;42.678;23.312;2022-12-16T00:38:08;92.00;;;42.40;;
5807;SDS011;2930;42.678;23.312;2022-12-16T00:40:33;82.40;;;42.53;;
5807;SDS011;2930;42.678;23.312;2022-12-16T00:42:59;93.63;;;41.17;;
5807;SDS011;2930;42.678;23.312;2022-12-16T00:45:25;99.67;;;44.20;;
5807;SDS011;2930;42.678;23.312;2022-12-16T00:47:50;105.00;;;43.90;;
5807;SDS011;2930;42.678;23.312;2022-12-16T00:50:16;92.23;;;43.60;;
5807;SDS011;2930;42.678;23.312;2022-12-16T00:52:44;87.53;;;40.57;;
5807;SDS011;2930;42.678;23.312;2022-12-16T00:55:10;67.27;;;37.53;;
5807;SDS011;2930;42.678;23.312;2022-12-16T00:57:36;75.90;;;38.07;;
5807;SDS011;2930;42.678;23.312;2022-12-16T01:00:02;87.57;;;39.07;;
5807;SDS011;2930;42.678;23.312;2022-12-16T01:02:29;85.13;;;39.93;;
5807;SDS011;2930;42.678;23.312;2022-12-16T01:04:55;95.97;;;41.47;;
5807;SDS011;2930;42.678;23.312;2022-12-16T01:07:21;84.07;;;40.00;;
5807;SDS011;2930;42.678;23.312;2022-12-16T01:09:47;92.43;;;38.30;;
5807;SDS011;2930;42.678;23.312;2022-12-16T01:12:12;89.80;;;37.13;;
5807;SDS011;2930;42.678;23.312;2022-12-16T01:14:38;83.00;;;37.60;;
5807;SDS011;2930;42.678;23.312;2022-12-16T01:17:04;86.50;;;38.90;;
5807;SDS011;2930;42.678;23.312;2022-12-16T01:19:29;80.63;;;39.10;;
5807;SDS011;2930;42.678;23.312;2022-12-16T01:21:55;83.67;;;38.57;;
5807;SDS011;2930;42.678;23.312;2022-12-16T01:24:21;84.23;;;40.07;;
5807;SDS011;2930;42.678;23.312;2022-12-16T01:26:46;82.17;;;37.20;;
5807;SDS011;2930;42.678;23.312;2022-12-16T01:29:12;83.50;;;37.27;;
5807;SDS011;2930;42.678;23.312;2022-12-16T01:31:38;85.27;;;36.27;;
5807;SDS011;2930;42.678;23.312;2022-12-16T01:34:04;75.73;;;36.03;;
5807;SDS011;2930;42.678;23.312;2022-12-16T01:36:29;84.17;;;35.90;;
5807;SDS011;2930;42.678;23.312;2022-12-16T01:38:55;77.53;;;33.87;;
5807;SDS011;2930;42.678;23.312;2022-12-16T01:41:21;74.67;;;33.13;;
5807;SDS011;2930;42.678;23.312;2022-12-16T01:43:47;76.93;;;36.10;;
5807;SDS011;2930;42.678;23.312;2022-12-16T01:48:47;73.70;;;32.40;;
5807;SDS011;2930;42.678;23.312;2022-12-16T01:51:23;77.13;;;33.57;;
5807;SDS011;2930;42.678;23.312;2022-12-16T01:54:06;69.47;;;34.60;;
5807;SDS011;2930;42.678;23.312;2022-12-16T01:56:36;70.07;;;35.50;;
5807;SDS011;2930;42.678;23.312;2022-12-16T01:59:06;79.73;;;32.90;;
5807;SDS011;2930;42.678;23.312;2022-12-16T02:01:32;83.00;;;33.23;;
5807;SDS011;2930;42.678;23.312;2022-12-16T02:03:59;76.30;;;32.30;;
5807;SDS011;2930;42.678;23.312;2022-12-16T02:06:27;68.40;;;29.47;;
5807;SDS011;2930;42.678;23.312;2022-12-16T02:08:54;78.47;;;32.20;;
5807;SDS011;2930;42.678;23.312;2022-12-16T02:16:27;67.00;;;30.80;;
5807;SDS011;2930;42.678;23.312;2022-12-16T02:25:04;63.67;;;28.67;;
5807;SDS011;2930;42.678;23.312;2022-12-16T02:30:38;63.10;;;26.87;;
5807;SDS011;2930;42.678;23.312;2022-12-16T02:36:06;60.17;;;27.87;;
5807;SDS011;2930;42.678;23.312;2022-12-16T02:38:48;58.50;;;27.27;;
5807;SDS011;2930;42.678;23.312;2022-12-16T02:41:24;59.63;;;26.90;;
5807;SDS011;2930;42.678;23.312;2022-12-16T02:43:52;52.63;;;25.70;;
5807;SDS011;2930;42.678;23.312;2022-12-16T02:46:26;54.37;;;23.63;;
5807;SDS011;2930;42.678;23.312;2022-12-16T02:48:54;53.77;;;25.40;;
5807;SDS011;2930;42.678;23.312;2022-12-16T02:51:21;56.30;;;23.70;;
5807;SDS011;2930;42.678;23.312;2022-12-16T02:53:50;51.97;;;24.37;;
5807;SDS011;2930;42.678;23.312;2022-12-16T02:56:28;52.23;;;21.90;;
5807;SDS011;2930;42.678;23.312;2022-12-16T03:01:33;42.47;;;21.10;;
5807;SDS011;2930;42.678;23.312;2022-12-16T03:06:43;41.93;;;19.67;;
5807;SDS011;2930;42.678;23.312;2022-12-16T03:09:14;45.67;;;21.37;;
5807;SDS011;2930;42.678;23.312;2022-12-16T03:11:44;38.63;;;18.23;;
5807;SDS011;2930;42.678;23.312;2022-12-16T03:14:13;37.93;;;18.80;;
5807;SDS011;2930;42.678;23.312;2022-12-16T03:16:42;35.73;;;18.33;;
5807;SDS011;2930;42.678;23.312;2022-12-16T03:19:10;40.60;;;19.47;;
5807;SDS011;2930;42.678;23.312;2022-12-16T03:21:45;40.80;;;20.33;;
5807;SDS011;2930;42.678;23.312;2022-12-16T03:24:18;36.97;;;18.57;;
5807;SDS011;2930;42.678;23.312;2022-12-16T03:32:39;30.43;;;18.90;;
5807;SDS011;2930;42.678;23.312;2022-12-16T03:37:37;44.27;;;19.13;;
5807;SDS011;2930;42.678;23.312;2022-12-16T03:40:05;35.10;;;17.87;;
5807;SDS011;2930;42.678;23.312;2022-12-16T03:42:33;40.00;;;19.90;;
5807;SDS011;2930;42.678;23.312;2022-12-16T03:45:01;38.30;;;18.33;;
5807;SDS011;2930;42.678;23.312;2022-12-16T03:47:28;37.00;;;19.40;;
5807;SDS011;2930;42.678;23.312;2022-12-16T03:49:54;29.40;;;16.50;;
5807;SDS011;2930;42.678;23.312;2022-12-16T03:52:20;43.00;;;19.17;;
5807;SDS011;2930;42.678;23.312;2022-12-16T03:54:46;39.73;;;17.97;;
5807;SDS011;2930;42.678;23.312;2022-12-16T03:57:11;29.17;;;17.53;;
5807;SDS011;2930;42.678;23.312;2022-12-16T03:59:37;32.97;;;17.57;;
5807;SDS011;2930;42.678;23.312;2022-12-16T04:02:03;32.67;;;16.67;;
5807;SDS011;2930;42.678;23.312;2022-12-16T04:04:29;28.83;;;15.00;;
5807;SDS011;2930;42.678;23.312;2022-12-16T04:06:55;32.97;;;15.70;;
5807;SDS011;2930;42.678;23.312;2022-12-16T04:09:39;28.83;;;15.00;;
5807;SDS011;2930;42.678;23.312;2022-12-16T04:12:05;26.03;;;14.13;;
5807;SDS011;2930;42.678;23.312;2022-12-16T04:14:51;32.07;;;14.43;;
5807;SDS011;2930;42.678;23.312;2022-12-16T04:17:35;30.53;;;15.93;;
5807;SDS011;2930;42.678;23.312;2022-12-16T04:20:19;22.73;;;12.63;;
5807;SDS011;2930;42.678;23.312;2022-12-16T04:23:09;25.97;;;13.17;;
5807;SDS011;2930;42.678;23.312;2022-12-16T04:25:54;24.17;;;12.43;;
5807;SDS011;2930;42.678;23.312;2022-12-16T04:28:19;19.57;;;11.57;;
5807;SDS011;2930;42.678;23.312;2022-12-16T04:30:45;25.70;;;14.13;;
5807;SDS011;2930;42.678;23.312;2022-12-16T04:33:11;27.57;;;14.00;;
5807;SDS011;2930;42.678;23.312;2022-12-16T04:35:57;29.53;;;12.67;;
5807;SDS011;2930;42.678;23.312;2022-12-16T04:38:42;21.07;;;12.10;;
5807;SDS011;2930;42.678;23.312;2022-12-16T04:41:26;26.57;;;13.57;;
5807;SDS011;2930;42.678;23.312;2022-12-16T04:44:10;24.37;;;11.43;;
5807;SDS011;2930;42.678;23.312;2022-12-16T04:46:54;19.67;;;10.33;;
5807;SDS011;2930;42.678;23.312;2022-12-16T04:49:39;22.83;;;11.37;;
5807;SDS011;2930;42.678;23.312;2022-12-16T04:52:23;14.20;;;10.07;;
5807;SDS011;2930;42.678;23.312;2022-12-16T04:55:08;19.03;;;10.33;;
5807;SDS011;2930;42.678;23.312;2022-12-16T04:57:53;13.60;;;10.23;;
5807;SDS011;2930;42.678;23.312;2022-12-16T05:00:43;21.87;;;10.50;;
5807;SDS011;2930;42.678;23.312;2022-12-16T05:03:28;22.47;;;11.33;;
5807;SDS011;2930;42.678;23.312;2022-12-16T05:06:12;20.23;;;11.50;;
5807;SDS011;2930;42.678;23.312;2022-12-16T05:08:57;19.30;;;10.23;;
5807;SDS011;2930;42.678;23.312;2022-12-16T05:11:42;24.17;;;11.47;;
5807;SDS011;2930;42.678;23.312;2022-12-16T05:14:26;16.63;;;10.47;;
5807;SDS011;2930;42.678;23.312;2022-12-16T05:17:11;21.27;;;11.17;;
5807;SDS011;2930;42.678;23.312;2022-12-16T05:19:56;19.07;;;9.40;;
5807;SDS011;2930;42.678;23.312;2022-12-16T05:22:40;19.33;;;10.70;;
5807;SDS011;2930;42.678;23.312;2022-12-16T05:25:24;14.47;;;10.10;;
5807;SDS011;2930;42.678;23.312;2022-12-16T05:28:08;16.97;;;10.63;;
5807;SDS011;2930;42.678;23.312;2022-12-16T05:30:52;24.17;;;10.87;;
5807;SDS011;2930;42.678;23.312;2022-12-16T05:33:36;16.87;;;10.83;;
5807;SDS011;2930;42.678;23.312;2022-12-16T05:36:20;15.60;;;10.20;;
5807;SDS011;2930;42.678;23.312;2022-12-16T05:39:04;17.60;;;9.93;;
5807;SDS011;2930;42.678;23.312;2022-12-16T05:41:49;23.30;;;11.47;;
5807;SDS011;2930;42.678;23.312;2022-12-16T05:44:33;20.30;;;11.70;;
5807;SDS011;2930;42.678;23.312;2022-12-16T05:47:17;21.87;;;11.13;;
5807;SDS011;2930;42.678;23.312;2022-12-16T05:50:02;23.10;;;13.40;;
5807;SDS011;2930;42.678;23.312;2022-12-16T05:52:51;24.83;;;11.37;;
5807;SDS011;2930;42.678;23.312;2022-12-16T05:55:37;22.77;;;12.63;;
5807;SDS011;2930;42.678;23.312;2022-12-16T05:58:22;18.27;;;11.23;;
5807;SDS011;2930;42.678;23.312;2022-12-16T06:01:06;19.03;;;11.40;;
5807;SDS011;2930;42.678;23.312;2022-12-16T06:03:51;23.70;;;13.07;;
5807;SDS011;2930;42.678;23.312;2022-12-16T06:06:35;18.10;;;11.60;;
5807;SDS011;2930;42.678;23.312;2022-12-16T06:09:19;24.40;;;11.83;;
5807;SDS011;2930;42.678;23.312;2022-12-16T06:12:04;26.77;;;11.97;;
5807;SDS011;2930;42.678;23.312;2022-12-16T06:14:48;19.63;;;11.33;;
5807;SDS011;2930;42.678;23.312;2022-12-16T06:17:32;24.97;;;12.83;;
5807;SDS011;2930;42.678;23.312;2022-12-16T06:20:16;20.33;;;11.33;;
5807;SDS011;2930;42.678;23.312;2022-12-16T06:23:00;19.20;;;11.37;;
5807;SDS011;2930;42.678;23.312;2022-12-16T06:25:44;25.20;;;12.53;;
5807;SDS011;2930;42.678;23.312;2022-12-16T06:28:28;23.10;;;11.73;;
5807;SDS011;2930;42.678;23.312;2022-12-16T06:31:13;22.87;;;11.50;;
5807;SDS011;2930;42.678;23.312;2022-12-16T06:33:57;25.30;;;10.60;;
5807;SDS011;2930;42.678;23.312;2022-12-16T06:36:41;21.50;;;11.27;;
5807;SDS011;2930;42.678;23.312;2022-12-16T06:39:25;22.27;;;12.07;;
5807;SDS011;2930;42.678;23.312;2022-12-16T06:42:09;21.80;;;10.37;;
5807;SDS011;2930;42.678;23.312;2022-12-16T06:44:53;22.07;;;11.20;;
5807;SDS011;2930;42.678;23.312;2022-12-16T06:47:38;18.37;;;10.13;;
5807;SDS011;2930;42.678;23.312;2022-12-16T06:50:22;18.40;;;9.90;;
5807;SDS011;2930;42.678;23.312;2022-12-16T06:53:07;19.30;;;9.73;;
5807;SDS011;2930;42.678;23.312;2022-12-16T06:55:51;18.00;;;10.03;;
5807;SDS011;2930;42.678;23.312;2022-12-16T06:58:35;20.97;;;10.20;;
5807;SDS011;2930;42.678;23.312;2022-12-16T07:01:19;19.33;;;10.67;;
5807;SDS011;2930;42.678;23.312;2022-12-16T07:04:03;19.53;;;10.30;;
5807;SDS011;2930;42.678;23.312;2022-12-16T07:06:47;23.37;;;9.10;;
5807;SDS011;2930;42.678;23.312;2022-12-16T07:09:31;19.87;;;10.53;;
5807;SDS011;2930;42.678;23.312;2022-12-16T07:12:15;21.67;;;10.97;;
5807;SDS011;2930;42.678;23.312;2022-12-16T07:14:59;19.53;;;10.20;;
5807;SDS011;2930;42.678;23.312;2022-12-16T07:17:44;21.20;;;12.47;;
5807;SDS011;2930;42.678;23.312;2022-12-16T07:20:42;24.27;;;12.33;;
5807;SDS011;2930;42.678;23.312;2022-12-16T07:23:32;27.83;;;12.40;;
5807;SDS011;2930;42.678;23.312;2022-12-16T07:26:16;18.00;;;11.13;;
5807;SDS011;2930;42.678;23.312;2022-12-16T07:29:00;23.00;;;11.40;;
5807;SDS011;2930;42.678;23.312;2022-12-16T07:31:44;25.50;;;12.40;;
5807;SDS011;2930;42.678;23.312;2022-12-16T07:34:28;23.50;;;12.03;;
5807;SDS011;2930;42.678;23.312;2022-12-16T07:37:13;25.47;;;12.63;;
5807;SDS011;2930;42.678;23.312;2022-12-16T07:39:57;25.67;;;12.93;;
5807;SDS011;2930;42.678;23.312;2022-12-16T07:42:41;34.40;;;13.70;;
5807;SDS011;2930;42.678;23.312;2022-12-16T07:45:28;22.57;;;13.53;;
5807;SDS011;2930;42.678;23.312;2022-12-16T07:48:12;26.23;;;12.53;;
5807;SDS011;2930;42.678;23.312;2022-12-16T07:50:57;29.67;;;12.90;;
5807;SDS011;2930;42.678;23.312;2022-12-16T07:53:41;25.63;;;12.67;;
5807;SDS011;2930;42.678;23.312;2022-12-16T07:56:25;20.07;;;11.93;;
5807;SDS011;2930;42.678;23.312;2022-12-16T07:59:09;28.37;;;13.13;;
5807;SDS011;2930;42.678;23.312;2022-12-16T08:01:55;25.27;;;13.37;;
5807;SDS011;2930;42.678;23.312;2022-12-16T08:04:39;31.73;;;13.43;;
5807;SDS011;2930;42.678;23.312;2022-12-16T08:07:23;31.03;;;14.27;;
5807;SDS011;2930;42.678;23.312;2022-12-16T08:10:08;29.50;;;14.23;;
5807;SDS011;2930;42.678;23.312;2022-12-16T08:13:02;31.27;;;13.80;;
5807;SDS011;2930;42.678;23.312;2022-12-16T08:15:47;22.53;;;11.77;;
5807;SDS011;2930;42.678;23.312;2022-12-16T08:18:31;29.70;;;12.57;;
5807;SDS011;2930;42.678;23.312;2022-12-16T08:21:15;24.03;;;11.90;;
5807;SDS011;2930;42.678;23.312;2022-12-16T08:24:00;24.17;;;11.07;;
5807;SDS011;2930;42.678;23.312;2022-12-16T08:26:44;21.80;;;11.13;;
5807;SDS011;2930;42.678;23.312;2022-12-16T08:29:28;27.73;;;11.83;;
5807;SDS011;2930;42.678;23.312;2022-12-16T08:32:13;25.47;;;12.30;;
5807;SDS011;2930;42.678;23.312;2022-12-16T08:34:58;24.07;;;11.43;;
5807;SDS011;2930;42.678;23.312;2022-12-16T08:37:42;24.33;;;11.80;;
5807;SDS011;2930;42.678;23.312;2022-12-16T08:40:28;27.23;;;12.40;;
5807;SDS011;2930;42.678;23.312;2022-12-16T08:43:12;30.97;;;13.20;;
5807;SDS011;2930;42.678;23.312;2022-12-16T08:45:57;28.70;;;12.30;;
5807;SDS011;2930;42.678;23.312;2022-12-16T08:48:41;32.40;;;13.53;;
5807;SDS011;2930;42.678;23.312;2022-12-16T08:51:25;31.80;;;12.97;;
5807;SDS011;2930;42.678;23.312;2022-12-16T08:54:09;31.13;;;12.17;;
5807;SDS011;2930;42.678;23.312;2022-12-16T08:56:53;25.20;;;13.33;;
5807;SDS011;2930;42.678;23.312;2022-12-16T08:59:37;21.03;;;11.23;;
5807;SDS011;2930;42.678;23.312;2022-12-16T09:02:22;25.50;;;11.73;;
5807;SDS011;2930;42.678;23.312;2022-12-16T09:05:06;28.43;;;12.67;;
5807;SDS011;2930;42.678;23.312;2022-12-16T09:07:50;22.03;;;11.77;;
5807;SDS011;2930;42.678;23.312;2022-12-16T09:10:35;27.03;;;12.07;;
5807;SDS011;2930;42.678;23.312;2022-12-16T09:13:19;22.70;;;11.32;;
5807;SDS011;2930;42.678;23.312;2022-12-16T09:16:03;25.37;;;11.40;;
5807;SDS011;2930;42.678;23.312;2022-12-16T09:18:47;24.88;;;12.63;;
5807;SDS011;2930;42.678;23.312;2022-12-16T09:21:32;23.52;;;12.45;;
5807;SDS011;2930;42.678;23.312;2022-12-16T09:24:16;27.35;;;11.43;;
5807;SDS011;2930;42.678;23.312;2022-12-16T09:27:00;26.30;;;11.93;;
5807;SDS011;2930;42.678;23.312;2022-12-16T09:29:44;21.90;;;11.70;;
5807;SDS011;2930;42.678;23.312;2022-12-16T09:32:45;27.23;;;11.73;;
5807;SDS011;2930;42.678;23.312;2022-12-16T09:35:29;22.73;;;11.00;;
5807;SDS011;2930;42.678;23.312;2022-12-16T09:38:34;18.40;;;10.70;;
5807;SDS011;2930;42.678;23.312;2022-12-16T09:44:11;24.00;;;11.00;;
5807;SDS011;2930;42.678;23.312;2022-12-16T09:47:10;19.80;;;11.25;;
5807;SDS011;2930;42.678;23.312;2022-12-16T09:50:53;28.60;;;13.05;;
5807;SDS011;2930;42.678;23.312;2022-12-16T09:53:25;26.52;;;13.07;;
5807;SDS011;2930;42.678;23.312;2022-12-16T09:56:17;26.83;;;13.57;;
5807;SDS011;2930;42.678;23.312;2022-12-16T09:59:08;25.35;;;13.98;;
5807;SDS011;2930;42.678;23.312;2022-12-16T10:01:56;29.63;;;13.77;;
5807;SDS011;2930;42.678;23.312;2022-12-16T10:04:40;24.60;;;13.68;;
5807;SDS011;2930;42.678;23.312;2022-12-16T10:07:27;31.75;;;16.25;;
5807;SDS011;2930;42.678;23.312;2022-12-16T10:13:36;36.50;;;19.73;;
5807;SDS011;2930;42.678;23.312;2022-12-16T10:22:38;37.97;;;21.17;;
5807;SDS011;2930;42.678;23.312;2022-12-16T10:28:45;33.83;;;19.88;;
5807;SDS011;2930;42.678;23.312;2022-12-16T10:31:30;41.08;;;22.50;;
5807;SDS011;2930;42.678;23.312;2022-12-16T10:34:19;37.63;;;21.08;;
5807;SDS011;2930;42.678;23.312;2022-12-16T10:37:11;26.40;;;17.63;;
5807;SDS011;2930;42.678;23.312;2022-12-16T10:40:18;33.75;;;19.75;;
5807;SDS011;2930;42.678;23.312;2022-12-16T10:43:10;32.90;;;18.70;;
5807;SDS011;2930;42.678;23.312;2022-12-16T10:45:59;33.25;;;20.15;;
5807;SDS011;2930;42.678;23.312;2022-12-16T10:48:49;42.13;;;21.90;;
5807;SDS011;2930;42.678;23.312;2022-12-16T10:51:33;38.95;;;22.08;;
5807;SDS011;2930;42.678;23.312;2022-12-16T10:57:08;40.75;;;24.27;;
5807;SDS011;2930;42.678;23.312;2022-12-16T11:00:18;39.65;;;23.55;;
5807;SDS011;2930;42.678;23.312;2022-12-16T11:03:37;33.28;;;22.25;;
5807;SDS011;2930;42.678;23.312;2022-12-16T11:09:27;35.50;;;21.42;;
5807;SDS011;2930;42.678;23.312;2022-12-16T11:15:22;31.00;;;20.25;;
5807;SDS011;2930;42.678;23.312;2022-12-16T11:21:09;33.95;;;21.10;;
5807;SDS011;2930;42.678;23.312;2022-12-16T11:24:13;29.80;;;19.95;;
5807;SDS011;2930;42.678;23.312;2022-12-16T11:27:00;31.52;;;19.73;;
5807;SDS011;2930;42.678;23.312;2022-12-16T11:32:34;23.88;;;16.88;;
5807;SDS011;2930;42.678;23.312;2022-12-16T11:35:21;28.40;;;18.73;;
5807;SDS011;2930;42.678;23.312;2022-12-16T11:38:11;23.02;;;17.00;;
5807;SDS011;2930;42.678;23.312;2022-12-16T11:41:14;24.40;;;16.85;;
5807;SDS011;2930;42.678;23.312;2022-12-16T11:44:09;23.10;;;15.90;;
5807;SDS011;2930;42.678;23.312;2022-12-16T11:47:04;22.85;;;14.32;;
5807;SDS011;2930;42.678;23.312;2022-12-16T11:50:07;26.90;;;16.40;;
5807;SDS011;2930;42.678;23.312;2022-12-16T11:52:56;24.70;;;17.33;;
5807;SDS011;2930;42.678;23.312;2022-12-16T11:55:43;30.50;;;17.60;;
5807;SDS011;2930;42.678;23.312;2022-12-16T12:01:28;23.75;;;17.60;;
5807;SDS011;2930;42.678;23.312;2022-12-16T12:04:34;28.55;;;17.77;;
5807;SDS011;2930;42.678;23.312;2022-12-16T12:07:26;21.95;;;16.15;;
5807;SDS011;2930;42.678;23.312;2022-12-16T12:19:54;24.42;;;16.58;;
5807;SDS011;2930;42.678;23.312;2022-12-16T12:23:09;21.95;;;14.00;;
5807;SDS011;2930;42.678;23.312;2022-12-16T12:26:05;23.00;;;16.67;;
5807;SDS011;2930;42.678;23.312;2022-12-16T12:38:03;22.00;;;15.30;;
5807;SDS011;2930;42.678;23.312;2022-12-16T12:41:06;24.85;;;15.32;;
5807;SDS011;2930;42.678;23.312;2022-12-16T12:44:10;22.75;;;15.32;;
5807;SDS011;2930;42.678;23.312;2022-12-16T12:47:04;20.27;;;14.07;;
5807;SDS011;2930;42.678;23.312;2022-12-16T12:55:54;22.30;;;15.00;;
5807;SDS011;2930;42.678;23.312;2022-12-16T12:59:17;23.33;;;15.13;;
5807;SDS011;2930;42.678;23.312;2022-12-16T13:02:09;20.08;;;14.32;;
5807;SDS011;2930;42.678;23.312;2022-12-16T13:05:01;20.65;;;14.65;;
5807;SDS011;2930;42.678;23.312;2022-12-16T13:07:46;19.38;;;14.52;;
5807;SDS011;2930;42.678;23.312;2022-12-16T13:10:32;20.08;;;14.05;;
5807;SDS011;2930;42.678;23.312;2022-12-16T13:13:20;23.65;;;14.55;;
5807;SDS011;2930;42.678;23.312;2022-12-16T13:25:49;21.00;;;14.35;;
5807;SDS011;2930;42.678;23.312;2022-12-16T13:28:28;24.50;;;14.65;;
5807;SDS011;2930;42.678;23.312;2022-12-16T13:31:17;21.20;;;14.35;;
5807;SDS011;2930;42.678;23.312;2022-12-16T13:34:03;21.63;;;15.20;;
5807;SDS011;2930;42.678;23.312;2022-12-16T13:37:22;24.30;;;14.50;;
5807;SDS011;2930;42.678;23.312;2022-12-16T13:40:17;23.77;;;14.45;;
5807;SDS011;2930;42.678;23.312;2022-12-16T13:43:04;21.25;;;14.32;;
5807;SDS011;2930;42.678;23.312;2022-12-16T13:46:18;20.73;;;14.35;;
5807;SDS011;2930;42.678;23.312;2022-12-16T13:52:18;21.00;;;13.70;;
5807;SDS011;2930;42.678;23.312;2022-12-16T14:04:32;18.42;;;13.48;;
5807;SDS011;2930;42.678;23.312;2022-12-16T14:07:23;25.40;;;14.02;;
5807;SDS011;2930;42.678;23.312;2022-12-16T14:13:09;19.83;;;13.77;;
5807;SDS011;2930;42.678;23.312;2022-12-16T14:19:33;20.88;;;13.38;;
5807;SDS011;2930;42.678;23.312;2022-12-16T14:25:43;20.02;;;13.60;;
5807;SDS011;2930;42.678;23.312;2022-12-16T14:28:33;20.95;;;13.45;;
5807;SDS011;2930;42.678;23.312;2022-12-16T14:34:20;23.08;;;13.45;;
5807;SDS011;2930;42.678;23.312;2022-12-16T14:37:10;20.83;;;14.05;;
5807;SDS011;2930;42.678;23.312;2022-12-16T14:39:56;24.85;;;14.25;;
5807;SDS011;2930;42.678;23.312;2022-12-16T14:42:42;21.42;;;13.60;;
5807;SDS011;2930;42.678;23.312;2022-12-16T14:45:40;18.80;;;12.73;;
5807;SDS011;2930;42.678;23.312;2022-12-16T14:48:33;25.00;;;13.30;;
5807;SDS011;2930;42.678;23.312;2022-12-16T14:51:29;20.92;;;13.38;;
5807;SDS011;2930;42.678;23.312;2022-12-16T14:57:01;18.95;;;11.93;;
5807;SDS011;2930;42.678;23.312;2022-12-16T14:59:46;25.75;;;13.70;;
5807;SDS011;2930;42.678;23.312;2022-12-16T15:02:42;29.98;;;13.80;;
5807;SDS011;2930;42.678;23.312;2022-12-16T15:05:29;23.85;;;14.73;;
5807;SDS011;2930;42.678;23.312;2022-12-16T15:08:17;21.20;;;12.93;;
5807;SDS011;2930;42.678;23.312;2022-12-16T15:11:03;20.77;;;12.38;;
5807;SDS011;2930;42.678;23.312;2022-12-16T15:14:02;22.55;;;12.63;;
5807;SDS011;2930;42.678;23.312;2022-12-16T15:16:48;21.35;;;12.38;;
5807;SDS011;2930;42.678;23.312;2022-12-16T15:19:39;21.75;;;12.52;;
5807;SDS011;2930;42.678;23.312;2022-12-16T15:22:29;22.38;;;12.25;;
5807;SDS011;2930;42.678;23.312;2022-12-16T15:25:17;23.08;;;12.85;;
5807;SDS011;2930;42.678;23.312;2022-12-16T15:28:20;22.90;;;11.82;;
5807;SDS011;2930;42.678;23.312;2022-12-16T15:31:35;22.20;;;11.18;;
5807;SDS011;2930;42.678;23.312;2022-12-16T15:37:20;19.02;;;10.95;;
5807;SDS011;2930;42.678;23.312;2022-12-16T15:40:20;18.15;;;10.68;;
5807;SDS011;2930;42.678;23.312;2022-12-16T15:43:22;14.45;;;9.68;;
5807;SDS011;2930;42.678;23.312;2022-12-16T15:46:15;13.52;;;8.90;;
5807;SDS011;2930;42.678;23.312;2022-12-16T15:49:04;22.42;;;9.63;;
5807;SDS011;2930;42.678;23.312;2022-12-16T15:51:57;19.90;;;9.73;;
5807;SDS011;2930;42.678;23.312;2022-12-16T15:54:51;17.70;;;8.82;;
5807;SDS011;2930;42.678;23.312;2022-12-16T15:57:37;13.68;;;8.43;;
5807;SDS011;2930;42.678;23.312;2022-12-16T16:00:29;17.38;;;8.52;;
5807;SDS011;2930;42.678;23.312;2022-12-16T16:03:37;13.75;;;9.15;;
5807;SDS011;2930;42.678;23.312;2022-12-16T16:06:22;14.50;;;9.02;;
5807;SDS011;2930;42.678;23.312;2022-12-16T16:12:02;19.40;;;10.55;;
5807;SDS011;2930;42.678;23.312;2022-12-16T16:14:46;13.10;;;9.77;;
5807;SDS011;2930;42.678;23.312;2022-12-16T16:17:30;17.23;;;9.38;;
5807;SDS011;2930;42.678;23.312;2022-12-16T16:20:15;12.27;;;8.73;;
5807;SDS011;2930;42.678;23.312;2022-12-16T16:23:00;19.95;;;9.82;;
5807;SDS011;2930;42.678;23.312;2022-12-16T16:25:46;17.88;;;9.90;;
5807;SDS011;2930;42.678;23.312;2022-12-16T16:28:31;14.13;;;9.05;;
5807;SDS011;2930;42.678;23.312;2022-12-16T16:31:16;14.18;;;10.40;;
5807;SDS011;2930;42.678;23.312;2022-12-16T16:34:00;17.80;;;10.27;;
5807;SDS011;2930;42.678;23.312;2022-12-16T16:36:46;15.73;;;10.18;;
5807;SDS011;2930;42.678;23.312;2022-12-16T16:39:33;15.35;;;9.75;;
5807;SDS011;2930;42.678;23.312;2022-12-16T16:42:17;14.82;;;9.80;;
5807;SDS011;2930;42.678;23.312;2022-12-16T16:45:01;19.92;;;11.00;;
5807;SDS011;2930;42.678;23.312;2022-12-16T16:47:46;19.27;;;12.65;;
5807;SDS011;2930;42.678;23.312;2022-12-16T16:50:30;25.35;;;14.48;;
5807;SDS011;2930;42.678;23.312;2022-12-16T16:53:14;27.27;;;14.98;;
5807;SDS011;2930;42.678;23.312;2022-12-16T16:55:58;39.53;;;17.90;;
5807;SDS011;2930;42.678;23.312;2022-12-16T16:58:43;30.88;;;18.08;;
5807;SDS011;2930;42.678;23.312;2022-12-16T17:01:28;29.48;;;17.08;;
5807;SDS011;2930;42.678;23.312;2022-12-16T17:04:12;34.45;;;18.58;;
5807;SDS011;2930;42.678;23.312;2022-12-16T17:06:56;30.58;;;17.42;;
5807;SDS011;2930;42.678;23.312;2022-12-16T17:09:40;34.53;;;18.83;;
5807;SDS011;2930;42.678;23.312;2022-12-16T17:12:25;32.10;;;17.25;;
5807;SDS011;2930;42.678;23.312;2022-12-16T17:15:19;37.83;;;17.30;;
5807;SDS011;2930;42.678;23.312;2022-12-16T17:18:08;36.28;;;18.25;;
5807;SDS011;2930;42.678;23.312;2022-12-16T17:20:53;37.28;;;18.45;;
5807;SDS011;2930;42.678;23.312;2022-12-16T17:23:38;35.30;;;16.88;;
5807;SDS011;2930;42.678;23.312;2022-12-16T17:26:22;29.15;;;16.10;;
5807;SDS011;2930;42.678;23.312;2022-12-16T17:29:08;30.30;;;15.02;;
5807;SDS011;2930;42.678;23.312;2022-12-16T17:32:00;23.60;;;13.35;;
5807;SDS011;2930;42.678;23.312;2022-12-16T17:34:45;23.63;;;12.25;;
5807;SDS011;2930;42.678;23.312;2022-12-16T17:37:29;22.02;;;13.65;;
5807;SDS011;2930;42.678;23.312;2022-12-16T17:40:13;29.05;;;15.80;;
5807;SDS011;2930;42.678;23.312;2022-12-16T17:42:57;34.65;;;16.92;;
5807;SDS011;2930;42.678;23.312;2022-12-16T17:45:41;34.33;;;17.08;;
5807;SDS011;2930;42.678;23.312;2022-12-16T17:48:37;35.88;;;16.95;;
5807;SDS011;2930;42.678;23.312;2022-12-16T17:51:21;24.65;;;15.27;;
5807;SDS011;2930;42.678;23.312;2022-12-16T17:54:05;29.10;;;16.27;;
5807;SDS011;2930;42.678;23.312;2022-12-16T17:56:49;27.25;;;16.25;;
5807;SDS011;2930;42.678;23.312;2022-12-16T17:59:33;30.52;;;15.82;;
5807;SDS011;2930;42.678;23.312;2022-12-16T18:02:17;22.48;;;13.43;;
5807;SDS011;2930;42.678;23.312;2022-12-16T18:05:15;19.30;;;11.82;;
5807;SDS011;2930;42.678;23.312;2022-12-16T18:07:59;16.77;;;11.20;;
5807;SDS011;2930;42.678;23.312;2022-12-16T18:10:44;20.20;;;11.00;;
5807;SDS011;2930;42.678;23.312;2022-12-16T18:13:28;15.18;;;10.32;;
5807;SDS011;2930;42.678;23.312;2022-12-16T18:16:12;22.02;;;11.13;;
5807;SDS011;2930;42.678;23.312;2022-12-16T18:18:56;19.65;;;11.70;;
5807;SDS011;2930;42.678;23.312;2022-12-16T18:21:41;16.75;;;11.05;;
5807;SDS011;2930;42.678;23.312;2022-12-16T18:24:25;18.92;;;10.88;;